Terminal Aerodrome Forecast
Issued by NWS

Current Version | Previous Version | Graphics & Text | Print | Product List | Glossary On
Versions: 1 2 3 4 5 6 7 8 9 10 11 12 13 14 15 16 17 18 19 20
000
FTUS41 KILN 251500 AAB
TAFLCK
TAF AMD
KLCK 251502Z 2515/2612 18013G17KT P6SM BKN035 OVC045
     FM252100 19008KT P6SM SCT050 BKN150
     FM261000 34006KT 4SM -SHRA VCTS OVC028CB=

USA.gov is the U.S. government's official web portal to all federal, state and local government web resources and services.